sensor_id;sensor_type;location;lat;lon;timestamp;P1;durP1;ratioP1;P2;durP2;ratioP2
9409;SDS011;4744;52.576;13.568;2023-02-19T00:01:41;2.22;;;2.03;;
9409;SDS011;4744;52.576;13.568;2023-02-19T00:04:10;4.75;;;1.90;;
9409;SDS011;4744;52.576;13.568;2023-02-19T00:06:38;2.65;;;2.22;;
9409;SDS011;4744;52.576;13.568;2023-02-19T00:09:06;2.15;;;1.95;;
9409;SDS011;4744;52.576;13.568;2023-02-19T00:11:34;2.00;;;1.90;;
9409;SDS011;4744;52.576;13.568;2023-02-19T00:14:02;3.15;;;2.42;;
9409;SDS011;4744;52.576;13.568;2023-02-19T00:16:30;2.28;;;2.13;;
9409;SDS011;4744;52.576;13.568;2023-02-19T00:18:58;2.63;;;2.42;;
9409;SDS011;4744;52.576;13.568;2023-02-19T00:21:26;2.15;;;2.05;;
9409;SDS011;4744;52.576;13.568;2023-02-19T00:23:54;2.33;;;2.13;;
9409;SDS011;4744;52.576;13.568;2023-02-19T00:26:23;2.30;;;2.10;;
9409;SDS011;4744;52.576;13.568;2023-02-19T00:28:52;2.00;;;1.90;;
9409;SDS011;4744;52.576;13.568;2023-02-19T00:31:21;1.90;;;1.80;;
9409;SDS011;4744;52.576;13.568;2023-02-19T00:33:49;2.17;;;1.98;;
9409;SDS011;4744;52.576;13.568;2023-02-19T00:36:18;2.35;;;2.15;;
9409;SDS011;4744;52.576;13.568;2023-02-19T00:38:45;2.30;;;2.10;;
9409;SDS011;4744;52.576;13.568;2023-02-19T00:41:13;5.45;;;2.30;;
9409;SDS011;4744;52.576;13.568;2023-02-19T00:43:47;2.58;;;2.38;;
9409;SDS011;4744;52.576;13.568;2023-02-19T00:46:18;2.30;;;2.10;;
9409;SDS011;4744;52.576;13.568;2023-02-19T00:48:45;2.08;;;1.90;;
9409;SDS011;4744;52.576;13.568;2023-02-19T00:51:13;2.40;;;2.20;;
9409;SDS011;4744;52.576;13.568;2023-02-19T00:53:40;2.33;;;2.10;;
9409;SDS011;4744;52.576;13.568;2023-02-19T00:56:07;2.00;;;1.88;;
9409;SDS011;4744;52.576;13.568;2023-02-19T00:58:34;2.00;;;1.90;;
9409;SDS011;4744;52.576;13.568;2023-02-19T01:01:02;2.58;;;2.00;;
9409;SDS011;4744;52.576;13.568;2023-02-19T01:03:32;2.65;;;2.30;;
9409;SDS011;4744;52.576;13.568;2023-02-19T01:05:59;3.33;;;2.20;;
9409;SDS011;4744;52.576;13.568;2023-02-19T01:08:27;2.45;;;2.25;;
9409;SDS011;4744;52.576;13.568;2023-02-19T01:10:55;2.83;;;2.40;;
9409;SDS011;4744;52.576;13.568;2023-02-19T01:13:22;2.55;;;2.35;;
9409;SDS011;4744;52.576;13.568;2023-02-19T01:15:49;3.28;;;2.40;;
9409;SDS011;4744;52.576;13.568;2023-02-19T01:18:16;3.28;;;2.20;;
9409;SDS011;4744;52.576;13.568;2023-02-19T01:20:44;2.80;;;2.30;;
9409;SDS011;4744;52.576;13.568;2023-02-19T01:23:11;2.95;;;2.40;;
9409;SDS011;4744;52.576;13.568;2023-02-19T01:25:39;2.88;;;2.55;;
9409;SDS011;4744;52.576;13.568;2023-02-19T01:28:07;2.83;;;2.42;;
9409;SDS011;4744;52.576;13.568;2023-02-19T01:30:35;2.80;;;2.40;;
9409;SDS011;4744;52.576;13.568;2023-02-19T01:33:03;2.85;;;2.55;;
9409;SDS011;4744;52.576;13.568;2023-02-19T01:35:30;2.53;;;2.33;;
9409;SDS011;4744;52.576;13.568;2023-02-19T01:37:58;2.35;;;2.15;;
9409;SDS011;4744;52.576;13.568;2023-02-19T01:40:25;2.50;;;2.30;;
9409;SDS011;4744;52.576;13.568;2023-02-19T01:42:52;2.90;;;2.33;;
9409;SDS011;4744;52.576;13.568;2023-02-19T01:45:20;2.65;;;2.15;;
9409;SDS011;4744;52.576;13.568;2023-02-19T01:47:51;2.67;;;2.47;;
9409;SDS011;4744;52.576;13.568;2023-02-19T01:50:32;3.85;;;2.60;;
9409;SDS011;4744;52.576;13.568;2023-02-19T01:53:05;2.67;;;2.40;;
9409;SDS011;4744;52.576;13.568;2023-02-19T01:55:35;3.25;;;2.60;;
9409;SDS011;4744;52.576;13.568;2023-02-19T01:58:02;4.70;;;3.08;;
9409;SDS011;4744;52.576;13.568;2023-02-19T02:00:31;3.72;;;3.10;;
9409;SDS011;4744;52.576;13.568;2023-02-19T02:02:59;3.45;;;2.90;;
9409;SDS011;4744;52.576;13.568;2023-02-19T02:05:38;3.70;;;3.22;;
9409;SDS011;4744;52.576;13.568;2023-02-19T02:08:10;4.32;;;3.13;;
9409;SDS011;4744;52.576;13.568;2023-02-19T02:10:56;3.72;;;3.30;;
9409;SDS011;4744;52.576;13.568;2023-02-19T02:13:23;5.28;;;3.72;;
9409;SDS011;4744;52.576;13.568;2023-02-19T02:15:53;4.20;;;3.80;;
9409;SDS011;4744;52.576;13.568;2023-02-19T02:18:39;4.00;;;3.70;;
9409;SDS011;4744;52.576;13.568;2023-02-19T02:21:27;3.88;;;3.25;;
9409;SDS011;4744;52.576;13.568;2023-02-19T02:24:15;4.78;;;3.42;;
9409;SDS011;4744;52.576;13.568;2023-02-19T02:27:05;4.53;;;3.80;;
9409;SDS011;4744;52.576;13.568;2023-02-19T02:29:52;4.70;;;3.75;;
9409;SDS011;4744;52.576;13.568;2023-02-19T02:32:32;4.93;;;3.78;;
9409;SDS011;4744;52.576;13.568;2023-02-19T02:35:04;4.22;;;3.88;;
9409;SDS011;4744;52.576;13.568;2023-02-19T02:37:35;4.60;;;3.67;;
9409;SDS011;4744;52.576;13.568;2023-02-19T02:40:05;5.95;;;3.15;;
9409;SDS011;4744;52.576;13.568;2023-02-19T02:42:33;6.18;;;3.45;;
9409;SDS011;4744;52.576;13.568;2023-02-19T02:45:20;4.45;;;3.88;;
9409;SDS011;4744;52.576;13.568;2023-02-19T02:48:03;5.30;;;4.03;;
9409;SDS011;4744;52.576;13.568;2023-02-19T02:50:49;3.47;;;3.17;;
9409;SDS011;4744;52.576;13.568;2023-02-19T02:53:22;5.65;;;3.50;;
9409;SDS011;4744;52.576;13.568;2023-02-19T02:56:10;4.85;;;3.70;;
9409;SDS011;4744;52.576;13.568;2023-02-19T02:58:38;5.25;;;4.13;;
9409;SDS011;4744;52.576;13.568;2023-02-19T03:01:08;4.18;;;3.78;;
9409;SDS011;4744;52.576;13.568;2023-02-19T03:03:56;5.72;;;4.15;;
9409;SDS011;4744;52.576;13.568;2023-02-19T03:06:27;5.20;;;4.05;;
9409;SDS011;4744;52.576;13.568;2023-02-19T03:08:57;6.32;;;3.97;;
9409;SDS011;4744;52.576;13.568;2023-02-19T03:11:31;5.75;;;4.15;;
9409;SDS011;4744;52.576;13.568;2023-02-19T03:14:19;4.15;;;3.65;;
9409;SDS011;4744;52.576;13.568;2023-02-19T03:17:11;6.85;;;4.28;;
9409;SDS011;4744;52.576;13.568;2023-02-19T03:19:59;6.82;;;4.43;;
9409;SDS011;4744;52.576;13.568;2023-02-19T03:22:30;6.70;;;4.43;;
9409;SDS011;4744;52.576;13.568;2023-02-19T03:25:03;6.15;;;4.28;;
9409;SDS011;4744;52.576;13.568;2023-02-19T03:27:51;5.50;;;5.00;;
9409;SDS011;4744;52.576;13.568;2023-02-19T03:30:21;6.25;;;4.32;;
9409;SDS011;4744;52.576;13.568;2023-02-19T03:32:52;6.40;;;4.15;;
9409;SDS011;4744;52.576;13.568;2023-02-19T03:35:23;5.57;;;4.45;;
9409;SDS011;4744;52.576;13.568;2023-02-19T03:37:55;5.50;;;4.00;;
9409;SDS011;4744;52.576;13.568;2023-02-19T03:40:27;7.15;;;4.05;;
9409;SDS011;4744;52.576;13.568;2023-02-19T03:42:58;4.53;;;3.58;;
9409;SDS011;4744;52.576;13.568;2023-02-19T03:45:30;4.25;;;2.70;;
9409;SDS011;4744;52.576;13.568;2023-02-19T03:48:10;3.80;;;2.58;;
9409;SDS011;4744;52.576;13.568;2023-02-19T03:50:58;6.10;;;2.40;;
9409;SDS011;4744;52.576;13.568;2023-02-19T03:53:44;2.50;;;2.30;;
9409;SDS011;4744;52.576;13.568;2023-02-19T03:56:18;6.28;;;3.20;;
9409;SDS011;4744;52.576;13.568;2023-02-19T03:58:54;3.97;;;3.05;;
9409;SDS011;4744;52.576;13.568;2023-02-19T04:01:26;3.92;;;3.28;;
9409;SDS011;4744;52.576;13.568;2023-02-19T04:04:03;3.67;;;3.28;;
9409;SDS011;4744;52.576;13.568;2023-02-19T04:06:34;5.20;;;3.20;;
9409;SDS011;4744;52.576;13.568;2023-02-19T04:09:03;3.95;;;3.00;;
9409;SDS011;4744;52.576;13.568;2023-02-19T04:11:34;3.28;;;2.78;;
9409;SDS011;4744;52.576;13.568;2023-02-19T04:14:05;6.88;;;2.80;;
9409;SDS011;4744;52.576;13.568;2023-02-19T04:16:35;3.45;;;2.45;;
9409;SDS011;4744;52.576;13.568;2023-02-19T04:19:07;4.75;;;3.00;;
9409;SDS011;4744;52.576;13.568;2023-02-19T04:21:37;5.03;;;2.88;;
9409;SDS011;4744;52.576;13.568;2023-02-19T04:24:08;3.38;;;2.47;;
9409;SDS011;4744;52.576;13.568;2023-02-19T04:26:37;5.75;;;2.95;;
9409;SDS011;4744;52.576;13.568;2023-02-19T04:29:05;4.75;;;2.70;;
9409;SDS011;4744;52.576;13.568;2023-02-19T04:31:32;2.47;;;2.28;;
9409;SDS011;4744;52.576;13.568;2023-02-19T04:34:00;4.65;;;2.50;;
9409;SDS011;4744;52.576;13.568;2023-02-19T04:36:30;3.60;;;2.45;;
9409;SDS011;4744;52.576;13.568;2023-02-19T04:38:57;3.08;;;2.25;;
9409;SDS011;4744;52.576;13.568;2023-02-19T04:41:24;4.97;;;2.90;;
9409;SDS011;4744;52.576;13.568;2023-02-19T04:43:51;3.60;;;2.58;;
9409;SDS011;4744;52.576;13.568;2023-02-19T04:46:18;3.40;;;2.60;;
9409;SDS011;4744;52.576;13.568;2023-02-19T04:48:45;4.60;;;2.78;;
9409;SDS011;4744;52.576;13.568;2023-02-19T04:51:12;4.03;;;2.70;;
9409;SDS011;4744;52.576;13.568;2023-02-19T04:56:17;5.38;;;3.10;;
9409;SDS011;4744;52.576;13.568;2023-02-19T04:58:45;3.53;;;2.53;;
9409;SDS011;4744;52.576;13.568;2023-02-19T05:01:11;3.20;;;2.67;;
9409;SDS011;4744;52.576;13.568;2023-02-19T05:03:38;5.28;;;2.90;;
9409;SDS011;4744;52.576;13.568;2023-02-19T05:06:06;5.40;;;3.03;;
9409;SDS011;4744;52.576;13.568;2023-02-19T05:08:34;4.25;;;2.67;;
9409;SDS011;4744;52.576;13.568;2023-02-19T05:11:02;3.10;;;2.50;;
9409;SDS011;4744;52.576;13.568;2023-02-19T05:13:32;5.97;;;2.65;;
9409;SDS011;4744;52.576;13.568;2023-02-19T05:16:00;3.78;;;2.65;;
9409;SDS011;4744;52.576;13.568;2023-02-19T05:18:29;3.00;;;2.45;;
9409;SDS011;4744;52.576;13.568;2023-02-19T05:20:57;3.28;;;2.38;;
9409;SDS011;4744;52.576;13.568;2023-02-19T05:23:24;4.32;;;2.30;;
9409;SDS011;4744;52.576;13.568;2023-02-19T05:25:52;3.70;;;2.13;;
9409;SDS011;4744;52.576;13.568;2023-02-19T05:28:19;5.47;;;2.80;;
9409;SDS011;4744;52.576;13.568;2023-02-19T05:30:54;2.45;;;2.22;;
9409;SDS011;4744;52.576;13.568;2023-02-19T05:33:23;2.83;;;2.22;;
9409;SDS011;4744;52.576;13.568;2023-02-19T05:35:51;3.20;;;2.20;;
9409;SDS011;4744;52.576;13.568;2023-02-19T05:38:20;2.70;;;2.13;;
9409;SDS011;4744;52.576;13.568;2023-02-19T05:40:47;4.72;;;2.30;;
9409;SDS011;4744;52.576;13.568;2023-02-19T05:43:15;3.55;;;1.90;;
9409;SDS011;4744;52.576;13.568;2023-02-19T05:45:42;3.30;;;2.40;;
9409;SDS011;4744;52.576;13.568;2023-02-19T05:48:10;2.63;;;2.17;;
9409;SDS011;4744;52.576;13.568;2023-02-19T05:50:38;5.78;;;2.42;;
9409;SDS011;4744;52.576;13.568;2023-02-19T05:53:05;2.50;;;2.30;;
9409;SDS011;4744;52.576;13.568;2023-02-19T05:55:33;3.50;;;2.33;;
9409;SDS011;4744;52.576;13.568;2023-02-19T05:58:01;3.25;;;2.28;;
9409;SDS011;4744;52.576;13.568;2023-02-19T06:00:28;3.13;;;2.13;;
9409;SDS011;4744;52.576;13.568;2023-02-19T06:02:57;2.75;;;2.10;;
9409;SDS011;4744;52.576;13.568;2023-02-19T06:05:25;3.00;;;1.95;;
9409;SDS011;4744;52.576;13.568;2023-02-19T06:07:52;3.17;;;2.15;;
9409;SDS011;4744;52.576;13.568;2023-02-19T06:10:19;5.72;;;1.80;;
9409;SDS011;4744;52.576;13.568;2023-02-19T06:12:46;3.63;;;1.40;;
9409;SDS011;4744;52.576;13.568;2023-02-19T06:15:13;1.85;;;1.70;;
9409;SDS011;4744;52.576;13.568;2023-02-19T06:17:40;1.70;;;1.60;;
9409;SDS011;4744;52.576;13.568;2023-02-19T06:20:07;3.63;;;1.77;;
9409;SDS011;4744;52.576;13.568;2023-02-19T06:22:36;3.47;;;2.38;;
9409;SDS011;4744;52.576;13.568;2023-02-19T06:25:03;2.67;;;1.90;;
9409;SDS011;4744;52.576;13.568;2023-02-19T06:27:32;1.80;;;1.70;;
9409;SDS011;4744;52.576;13.568;2023-02-19T06:29:59;2.75;;;2.10;;
9409;SDS011;4744;52.576;13.568;2023-02-19T06:32:25;2.67;;;2.35;;
9409;SDS011;4744;52.576;13.568;2023-02-19T06:34:52;2.40;;;2.20;;
9409;SDS011;4744;52.576;13.568;2023-02-19T06:37:19;3.78;;;2.40;;
9409;SDS011;4744;52.576;13.568;2023-02-19T06:39:48;3.65;;;2.08;;
9409;SDS011;4744;52.576;13.568;2023-02-19T06:42:15;3.60;;;2.38;;
9409;SDS011;4744;52.576;13.568;2023-02-19T06:44:42;3.28;;;2.40;;
9409;SDS011;4744;52.576;13.568;2023-02-19T06:47:08;2.30;;;2.10;;
9409;SDS011;4744;52.576;13.568;2023-02-19T06:49:37;4.07;;;2.40;;
9409;SDS011;4744;52.576;13.568;2023-02-19T06:52:04;2.90;;;2.25;;
9409;SDS011;4744;52.576;13.568;2023-02-19T06:54:31;3.00;;;2.05;;
9409;SDS011;4744;52.576;13.568;2023-02-19T06:56:59;3.25;;;2.30;;
9409;SDS011;4744;52.576;13.568;2023-02-19T06:59:27;2.88;;;2.55;;
9409;SDS011;4744;52.576;13.568;2023-02-19T07:01:54;2.53;;;2.05;;
9409;SDS011;4744;52.576;13.568;2023-02-19T07:04:21;3.40;;;2.17;;
9409;SDS011;4744;52.576;13.568;2023-02-19T07:06:48;3.92;;;2.22;;
9409;SDS011;4744;52.576;13.568;2023-02-19T07:09:14;3.10;;;2.40;;
9409;SDS011;4744;52.576;13.568;2023-02-19T07:11:41;4.63;;;2.22;;
9409;SDS011;4744;52.576;13.568;2023-02-19T07:14:12;3.42;;;1.90;;
9409;SDS011;4744;52.576;13.568;2023-02-19T07:16:41;3.85;;;2.03;;
9409;SDS011;4744;52.576;13.568;2023-02-19T07:19:08;3.65;;;2.60;;
9409;SDS011;4744;52.576;13.568;2023-02-19T07:21:35;3.17;;;2.20;;
9409;SDS011;4744;52.576;13.568;2023-02-19T07:24:03;3.38;;;2.17;;
9409;SDS011;4744;52.576;13.568;2023-02-19T07:26:30;4.03;;;1.92;;
9409;SDS011;4744;52.576;13.568;2023-02-19T07:28:57;3.92;;;2.08;;
9409;SDS011;4744;52.576;13.568;2023-02-19T07:31:25;4.85;;;2.33;;
9409;SDS011;4744;52.576;13.568;2023-02-19T07:33:53;4.32;;;2.28;;
9409;SDS011;4744;52.576;13.568;2023-02-19T07:36:21;4.88;;;2.25;;
9409;SDS011;4744;52.576;13.568;2023-02-19T07:38:51;2.75;;;2.10;;
9409;SDS011;4744;52.576;13.568;2023-02-19T07:41:20;3.85;;;2.25;;
9409;SDS011;4744;52.576;13.568;2023-02-19T07:43:47;6.53;;;2.40;;
9409;SDS011;4744;52.576;13.568;2023-02-19T07:46:14;2.75;;;2.20;;
9409;SDS011;4744;52.576;13.568;2023-02-19T07:48:42;3.05;;;2.25;;
9409;SDS011;4744;52.576;13.568;2023-02-19T07:51:10;6.43;;;2.42;;
9409;SDS011;4744;52.576;13.568;2023-02-19T07:53:40;4.82;;;2.13;;
9409;SDS011;4744;52.576;13.568;2023-02-19T07:56:09;4.43;;;2.42;;
9409;SDS011;4744;52.576;13.568;2023-02-19T07:58:36;4.10;;;2.15;;
9409;SDS011;4744;52.576;13.568;2023-02-19T08:01:07;4.18;;;2.17;;
9409;SDS011;4744;52.576;13.568;2023-02-19T08:03:35;2.83;;;2.17;;
9409;SDS011;4744;52.576;13.568;2023-02-19T08:06:03;2.85;;;2.17;;
9409;SDS011;4744;52.576;13.568;2023-02-19T08:08:30;6.13;;;2.80;;
9409;SDS011;4744;52.576;13.568;2023-02-19T08:11:00;3.03;;;2.40;;
9409;SDS011;4744;52.576;13.568;2023-02-19T08:13:46;3.60;;;2.10;;
9409;SDS011;4744;52.576;13.568;2023-02-19T08:16:14;7.90;;;2.20;;
9409;SDS011;4744;52.576;13.568;2023-02-19T08:18:44;3.08;;;2.40;;
9409;SDS011;4744;52.576;13.568;2023-02-19T08:21:13;5.53;;;2.45;;
9409;SDS011;4744;52.576;13.568;2023-02-19T08:23:42;3.55;;;2.20;;
9409;SDS011;4744;52.576;13.568;2023-02-19T08:26:10;3.63;;;2.08;;
9409;SDS011;4744;52.576;13.568;2023-02-19T08:28:37;3.70;;;2.20;;
9409;SDS011;4744;52.576;13.568;2023-02-19T08:31:05;3.13;;;2.30;;
9409;SDS011;4744;52.576;13.568;2023-02-19T08:33:33;5.55;;;2.70;;
9409;SDS011;4744;52.576;13.568;2023-02-19T08:36:01;5.50;;;2.58;;
9409;SDS011;4744;52.576;13.568;2023-02-19T08:38:31;4.90;;;2.30;;
9409;SDS011;4744;52.576;13.568;2023-02-19T08:41:02;3.97;;;2.15;;
9409;SDS011;4744;52.576;13.568;2023-02-19T08:43:30;4.18;;;2.25;;
9409;SDS011;4744;52.576;13.568;2023-02-19T08:45:57;3.95;;;2.00;;
9409;SDS011;4744;52.576;13.568;2023-02-19T08:48:24;4.57;;;2.10;;
9409;SDS011;4744;52.576;13.568;2023-02-19T08:50:52;5.28;;;1.65;;
9409;SDS011;4744;52.576;13.568;2023-02-19T08:53:20;2.20;;;1.92;;
9409;SDS011;4744;52.576;13.568;2023-02-19T08:55:48;7.28;;;2.42;;
9409;SDS011;4744;52.576;13.568;2023-02-19T08:58:16;5.00;;;2.40;;
9409;SDS011;4744;52.576;13.568;2023-02-19T09:00:43;4.82;;;1.95;;
9409;SDS011;4744;52.576;13.568;2023-02-19T09:03:10;5.25;;;1.98;;
9409;SDS011;4744;52.576;13.568;2023-02-19T09:05:37;4.18;;;1.83;;
9409;SDS011;4744;52.576;13.568;2023-02-19T09:08:04;4.97;;;2.40;;
9409;SDS011;4744;52.576;13.568;2023-02-19T09:10:31;9.77;;;2.17;;
9409;SDS011;4744;52.576;13.568;2023-02-19T09:12:59;5.70;;;1.80;;
9409;SDS011;4744;52.576;13.568;2023-02-19T09:15:26;7.05;;;2.00;;
9409;SDS011;4744;52.576;13.568;2023-02-19T09:17:53;8.73;;;1.90;;
9409;SDS011;4744;52.576;13.568;2023-02-19T09:20:21;2.85;;;1.60;;
9409;SDS011;4744;52.576;13.568;2023-02-19T09:22:47;3.20;;;1.48;;
9409;SDS011;4744;52.576;13.568;2023-02-19T09:25:14;3.95;;;1.80;;
9409;SDS011;4744;52.576;13.568;2023-02-19T09:27:41;4.07;;;1.50;;
9409;SDS011;4744;52.576;13.568;2023-02-19T09:30:10;7.05;;;1.85;;
9409;SDS011;4744;52.576;13.568;2023-02-19T09:32:37;4.13;;;1.83;;
9409;SDS011;4744;52.576;13.568;2023-02-19T09:35:04;3.28;;;1.60;;
9409;SDS011;4744;52.576;13.568;2023-02-19T09:37:32;6.28;;;1.92;;
9409;SDS011;4744;52.576;13.568;2023-02-19T09:39:59;4.00;;;1.58;;
9409;SDS011;4744;52.576;13.568;2023-02-19T09:42:26;3.53;;;1.67;;
9409;SDS011;4744;52.576;13.568;2023-02-19T09:44:55;5.78;;;1.65;;
9409;SDS011;4744;52.576;13.568;2023-02-19T09:47:26;3.42;;;1.65;;
9409;SDS011;4744;52.576;13.568;2023-02-19T09:49:54;4.40;;;1.45;;
9409;SDS011;4744;52.576;13.568;2023-02-19T09:52:27;7.50;;;1.20;;
9409;SDS011;4744;52.576;13.568;2023-02-19T09:54:58;2.85;;;1.35;;
9409;SDS011;4744;52.576;13.568;2023-02-19T09:57:28;2.42;;;1.50;;
9409;SDS011;4744;52.576;13.568;2023-02-19T09:59:59;3.40;;;1.45;;
9409;SDS011;4744;52.576;13.568;2023-02-19T10:02:31;4.78;;;1.73;;
9409;SDS011;4744;52.576;13.568;2023-02-19T10:04:59;3.83;;;1.50;;
9409;SDS011;4744;52.576;13.568;2023-02-19T10:07:29;3.70;;;1.20;;
9409;SDS011;4744;52.576;13.568;2023-02-19T10:10:05;2.70;;;1.40;;
9409;SDS011;4744;52.576;13.568;2023-02-19T10:12:51;4.78;;;1.63;;
9409;SDS011;4744;52.576;13.568;2023-02-19T10:15:21;4.85;;;1.40;;
9409;SDS011;4744;52.576;13.568;2023-02-19T10:17:55;6.93;;;1.90;;
9409;SDS011;4744;52.576;13.568;2023-02-19T10:20:23;4.68;;;1.20;;
9409;SDS011;4744;52.576;13.568;2023-02-19T10:22:54;4.18;;;1.75;;
9409;SDS011;4744;52.576;13.568;2023-02-19T10:25:24;5.28;;;2.08;;
9409;SDS011;4744;52.576;13.568;2023-02-19T10:27:50;3.67;;;1.33;;
9409;SDS011;4744;52.576;13.568;2023-02-19T10:30:19;6.18;;;1.75;;
9409;SDS011;4744;52.576;13.568;2023-02-19T10:33:00;3.00;;;1.15;;
9409;SDS011;4744;52.576;13.568;2023-02-19T10:35:29;3.38;;;1.50;;
9409;SDS011;4744;52.576;13.568;2023-02-19T10:38:00;3.90;;;1.40;;
9409;SDS011;4744;52.576;13.568;2023-02-19T10:40:29;3.47;;;1.08;;
9409;SDS011;4744;52.576;13.568;2023-02-19T10:42:58;3.75;;;1.58;;
9409;SDS011;4744;52.576;13.568;2023-02-19T10:45:29;5.78;;;1.75;;
9409;SDS011;4744;52.576;13.568;2023-02-19T10:48:01;6.00;;;2.40;;
9409;SDS011;4744;52.576;13.568;2023-02-19T10:50:29;5.43;;;2.15;;
9409;SDS011;4744;52.576;13.568;2023-02-19T10:52:59;4.15;;;1.58;;
9409;SDS011;4744;52.576;13.568;2023-02-19T10:55:28;2.83;;;1.40;;
9409;SDS011;4744;52.576;13.568;2023-02-19T10:57:56;4.97;;;1.80;;
9409;SDS011;4744;52.576;13.568;2023-02-19T11:00:40;4.72;;;1.70;;
9409;SDS011;4744;52.576;13.568;2023-02-19T11:03:17;1.75;;;1.00;;
9409;SDS011;4744;52.576;13.568;2023-02-19T11:05:53;2.38;;;1.10;;
9409;SDS011;4744;52.576;13.568;2023-02-19T11:08:25;3.55;;;1.25;;
9409;SDS011;4744;52.576;13.568;2023-02-19T11:10:52;4.28;;;1.48;;
9409;SDS011;4744;52.576;13.568;2023-02-19T11:13:22;4.47;;;1.38;;
9409;SDS011;4744;52.576;13.568;2023-02-19T11:15:55;1.92;;;1.40;;
9409;SDS011;4744;52.576;13.568;2023-02-19T11:18:25;3.38;;;1.33;;
9409;SDS011;4744;52.576;13.568;2023-02-19T11:20:54;3.40;;;1.17;;
9409;SDS011;4744;52.576;13.568;2023-02-19T11:23:24;4.28;;;1.38;;
9409;SDS011;4744;52.576;13.568;2023-02-19T11:25:53;4.05;;;1.20;;
9409;SDS011;4744;52.576;13.568;2023-02-19T11:28:23;4.18;;;1.60;;
9409;SDS011;4744;52.576;13.568;2023-02-19T11:30:55;3.08;;;1.13;;
9409;SDS011;4744;52.576;13.568;2023-02-19T11:33:45;2.42;;;1.10;;
9409;SDS011;4744;52.576;13.568;2023-02-19T11:36:28;3.78;;;1.17;;
9409;SDS011;4744;52.576;13.568;2023-02-19T11:39:01;3.20;;;1.17;;
9409;SDS011;4744;52.576;13.568;2023-02-19T11:41:49;3.08;;;1.15;;
9409;SDS011;4744;52.576;13.568;2023-02-19T11:44:38;4.45;;;1.30;;
9409;SDS011;4744;52.576;13.568;2023-02-19T11:47:27;2.95;;;1.17;;
9409;SDS011;4744;52.576;13.568;2023-02-19T11:50:17;3.05;;;1.20;;
9409;SDS011;4744;52.576;13.568;2023-02-19T11:52:50;1.27;;;1.10;;
9409;SDS011;4744;52.576;13.568;2023-02-19T11:55:29;3.03;;;1.05;;
9409;SDS011;4744;52.576;13.568;2023-02-19T11:58:12;2.50;;;1.35;;
9409;SDS011;4744;52.576;13.568;2023-02-19T12:01:03;2.95;;;0.98;;
9409;SDS011;4744;52.576;13.568;2023-02-19T12:03:42;2.35;;;1.30;;
9409;SDS011;4744;52.576;13.568;2023-02-19T12:06:43;3.88;;;1.05;;
9409;SDS011;4744;52.576;13.568;2023-02-19T12:09:22;1.10;;;0.70;;
9409;SDS011;4744;52.576;13.568;2023-02-19T12:12:05;2.20;;;0.77;;
9409;SDS011;4744;52.576;13.568;2023-02-19T12:14:45;3.22;;;1.38;;
9409;SDS011;4744;52.576;13.568;2023-02-19T12:17:45;2.97;;;1.08;;
9409;SDS011;4744;52.576;13.568;2023-02-19T12:20:24;5.15;;;1.17;;
9409;SDS011;4744;52.576;13.568;2023-02-19T12:22:59;2.83;;;0.93;;
9409;SDS011;4744;52.576;13.568;2023-02-19T12:25:43;3.42;;;1.40;;
9409;SDS011;4744;52.576;13.568;2023-02-19T12:28:27;2.60;;;1.08;;
9409;SDS011;4744;52.576;13.568;2023-02-19T12:31:22;2.90;;;1.23;;
9409;SDS011;4744;52.576;13.568;2023-02-19T12:34:41;2.42;;;0.82;;
9409;SDS011;4744;52.576;13.568;2023-02-19T12:37:32;5.10;;;1.08;;
9409;SDS011;4744;52.576;13.568;2023-02-19T12:40:19;3.72;;;1.05;;
9409;SDS011;4744;52.576;13.568;2023-02-19T12:43:00;1.90;;;1.10;;
9409;SDS011;4744;52.576;13.568;2023-02-19T12:45:36;2.55;;;1.00;;
9409;SDS011;4744;52.576;13.568;2023-02-19T12:48:10;3.50;;;1.45;;
9409;SDS011;4744;52.576;13.568;2023-02-19T12:50:43;5.10;;;1.27;;
9409;SDS011;4744;52.576;13.568;2023-02-19T12:53:18;4.03;;;1.10;;
9409;SDS011;4744;52.576;13.568;2023-02-19T12:55:54;1.98;;;1.17;;
9409;SDS011;4744;52.576;13.568;2023-02-19T12:58:25;1.40;;;0.77;;
9409;SDS011;4744;52.576;13.568;2023-02-19T13:00:57;2.28;;;1.10;;
9409;SDS011;4744;52.576;13.568;2023-02-19T13:03:27;1.58;;;0.80;;
9409;SDS011;4744;52.576;13.568;2023-02-19T13:05:58;1.75;;;0.82;;
9409;SDS011;4744;52.576;13.568;2023-02-19T13:08:31;4.05;;;1.40;;
9409;SDS011;4744;52.576;13.568;2023-02-19T13:11:05;2.85;;;0.90;;
9409;SDS011;4744;52.576;13.568;2023-02-19T13:13:40;2.53;;;1.13;;
9409;SDS011;4744;52.576;13.568;2023-02-19T13:16:12;3.92;;;1.40;;
9409;SDS011;4744;52.576;13.568;2023-02-19T13:18:41;3.10;;;1.00;;
9409;SDS011;4744;52.576;13.568;2023-02-19T13:21:12;1.67;;;0.82;;
9409;SDS011;4744;52.576;13.568;2023-02-19T13:24:01;3.33;;;1.15;;
9409;SDS011;4744;52.576;13.568;2023-02-19T13:26:37;2.75;;;0.90;;
9409;SDS011;4744;52.576;13.568;2023-02-19T13:29:20;2.13;;;0.90;;
9409;SDS011;4744;52.576;13.568;2023-02-19T13:32:09;1.48;;;0.98;;
9409;SDS011;4744;52.576;13.568;2023-02-19T13:34:56;3.55;;;1.02;;
9409;SDS011;4744;52.576;13.568;2023-02-19T13:37:37;2.38;;;0.90;;
9409;SDS011;4744;52.576;13.568;2023-02-19T13:40:05;1.42;;;1.02;;
9409;SDS011;4744;52.576;13.568;2023-02-19T13:42:52;3.40;;;1.23;;
9409;SDS011;4744;52.576;13.568;2023-02-19T13:45:23;3.53;;;1.30;;
9409;SDS011;4744;52.576;13.568;2023-02-19T13:48:00;2.70;;;1.02;;
9409;SDS011;4744;52.576;13.568;2023-02-19T13:50:38;2.53;;;1.15;;
9409;SDS011;4744;52.576;13.568;2023-02-19T14:04:59;2.22;;;0.88;;
9409;SDS011;4744;52.576;13.568;2023-02-19T14:19:45;1.05;;;0.73;;
9409;SDS011;4744;52.576;13.568;2023-02-19T14:25:37;2.58;;;0.80;;
9409;SDS011;4744;52.576;13.568;2023-02-19T14:28:13;3.70;;;1.05;;
9409;SDS011;4744;52.576;13.568;2023-02-19T14:30:58;2.80;;;0.90;;
9409;SDS011;4744;52.576;13.568;2023-02-19T14:33:28;1.58;;;1.00;;
9409;SDS011;4744;52.576;13.568;2023-02-19T14:35:58;3.58;;;1.10;;
9409;SDS011;4744;52.576;13.568;2023-02-19T14:38:31;2.10;;;0.88;;
9409;SDS011;4744;52.576;13.568;2023-02-19T14:41:03;1.70;;;0.95;;
9409;SDS011;4744;52.576;13.568;2023-02-19T14:43:30;1.27;;;0.75;;
9409;SDS011;4744;52.576;13.568;2023-02-19T14:45:59;1.48;;;0.77;;
9409;SDS011;4744;52.576;13.568;2023-02-19T14:48:33;2.55;;;0.90;;
9409;SDS011;4744;52.576;13.568;2023-02-19T14:51:03;2.88;;;0.82;;
9409;SDS011;4744;52.576;13.568;2023-02-19T14:53:36;3.13;;;0.80;;
9409;SDS011;4744;52.576;13.568;2023-02-19T14:56:13;1.83;;;0.70;;
9409;SDS011;4744;52.576;13.568;2023-02-19T14:58:45;1.63;;;0.93;;
9409;SDS011;4744;52.576;13.568;2023-02-19T15:01:32;1.30;;;1.05;;
9409;SDS011;4744;52.576;13.568;2023-02-19T15:03:59;2.42;;;0.80;;
9409;SDS011;4744;52.576;13.568;2023-02-19T15:06:26;1.83;;;0.80;;
9409;SDS011;4744;52.576;13.568;2023-02-19T15:08:56;3.55;;;0.85;;
9409;SDS011;4744;52.576;13.568;2023-02-19T15:11:30;3.15;;;0.80;;
9409;SDS011;4744;52.576;13.568;2023-02-19T15:14:00;1.70;;;0.57;;
9409;SDS011;4744;52.576;13.568;2023-02-19T15:16:29;3.40;;;0.82;;
9409;SDS011;4744;52.576;13.568;2023-02-19T15:18:58;0.80;;;0.63;;
9409;SDS011;4744;52.576;13.568;2023-02-19T15:21:26;2.25;;;0.70;;
9409;SDS011;4744;52.576;13.568;2023-02-19T15:23:55;2.05;;;0.80;;
9409;SDS011;4744;52.576;13.568;2023-02-19T15:26:26;3.05;;;0.95;;
9409;SDS011;4744;52.576;13.568;2023-02-19T15:28:59;1.70;;;0.63;;
9409;SDS011;4744;52.576;13.568;2023-02-19T15:31:27;1.27;;;0.43;;
9409;SDS011;4744;52.576;13.568;2023-02-19T15:33:54;1.75;;;0.80;;
9409;SDS011;4744;52.576;13.568;2023-02-19T15:36:25;2.25;;;1.10;;
9409;SDS011;4744;52.576;13.568;2023-02-19T15:38:55;1.42;;;0.65;;
9409;SDS011;4744;52.576;13.568;2023-02-19T15:41:25;2.95;;;0.80;;
9409;SDS011;4744;52.576;13.568;2023-02-19T15:43:59;2.63;;;0.95;;
9409;SDS011;4744;52.576;13.568;2023-02-19T15:46:33;3.28;;;0.90;;
9409;SDS011;4744;52.576;13.568;2023-02-19T15:49:03;2.60;;;0.80;;
9409;SDS011;4744;52.576;13.568;2023-02-19T15:51:33;2.08;;;0.82;;
9409;SDS011;4744;52.576;13.568;2023-02-19T15:54:07;1.02;;;0.63;;
9409;SDS011;4744;52.576;13.568;2023-02-19T15:56:43;1.20;;;0.80;;
9409;SDS011;4744;52.576;13.568;2023-02-19T15:59:17;2.33;;;0.90;;